Time;durP1;ratioP1;P1;durP2;ratioP2;P2;SDS_P1;SDS_P2;PMS_P1;PMS_P2;Temp;Humidity;BMP_temperature;BMP_pressure;BME280_temperature;BME280_humidity;BME280_pressure;Samples;Min_cycle;Max_cycle;Signal;HPM_P1;HPM_P2
2022/08/09 00:00:59;;;;;;;2.27;1.60;;;26.30;40.10;;;;;;6183571;23;20396;-70
2022/08/09 00:03:28;;;;;;;1.47;1.37;;;26.30;40.20;;;;;;6181411;23;20768;-70
2022/08/09 00:06:17;;;;;;;1.53;1.37;;;26.30;40.20;;;;;;6184115;23;20380;-70
2022/08/09 00:08:50;;;;;;;1.77;1.40;;;26.30;40.30;;;;;;6183830;23;20383;-70
2022/08/09 00:11:24;;;;;;;1.50;1.10;;;26.30;40.30;;;;;;6209465;23;20419;-70
2022/08/09 00:14:13;;;;;;;1.57;1.47;;;26.30;40.20;;;;;;6182670;23;20538;-70
2022/08/09 00:16:50;;;;;;;1.60;1.50;;;26.30;40.20;;;;;;6184118;23;20983;-70
2022/08/09 00:19:20;;;;;;;1.53;1.40;;;26.30;40.20;;;;;;6181808;23;20783;-70
2022/08/09 00:21:48;;;;;;;1.53;1.17;;;26.30;40.20;;;;;;6182721;23;20410;-70
2022/08/09 00:24:24;;;;;;;2.50;1.73;;;26.30;40.30;;;;;;6182549;23;20435;-70
2022/08/09 00:26:55;;;;;;;2.30;1.50;;;26.30;40.20;;;;;;6183600;23;20372;-70
2022/08/09 00:29:24;;;;;;;2.00;1.80;;;26.30;40.20;;;;;;6182004;23;20523;-70
2022/08/09 00:32:14;;;;;;;1.70;1.60;;;26.30;40.20;;;;;;6182828;23;20780;-70
2022/08/09 00:35:03;;;;;;;3.07;1.70;;;26.30;40.20;;;;;;6181424;23;20507;-70
2022/08/09 00:37:31;;;;;;;2.43;1.70;;;26.30;40.30;;;;;;6182768;23;20399;-70
2022/08/09 00:40:02;;;;;;;2.07;1.20;;;26.30;40.30;;;;;;6182469;23;20467;-70
2022/08/09 00:42:44;;;;;;;1.63;1.53;;;26.30;40.20;;;;;;6208743;23;20368;-70
2022/08/09 00:45:33;;;;;;;2.97;1.50;;;26.30;40.20;;;;;;6182699;23;20446;-70
2022/08/09 00:48:05;;;;;;;1.80;1.23;;;26.30;40.30;;;;;;6183196;23;20491;-70
2022/08/09 00:50:34;;;;;;;1.73;1.63;;;26.30;40.30;;;;;;6183223;23;20467;-70
2022/08/09 00:53:06;;;;;;;2.47;1.40;;;26.30;40.30;;;;;;6209768;23;20721;-70
2022/08/09 00:55:38;;;;;;;1.90;1.57;;;26.30;40.20;;;;;;6183631;23;20380;-70
2022/08/09 00:58:26;;;;;;;1.40;1.30;;;26.30;40.20;;;;;;6182248;23;20404;-70
2022/08/09 01:00:58;;;;;;;1.63;1.53;;;26.30;40.30;;;;;;6183050;23;20426;-70
2022/08/09 01:03:39;;;;;;;1.53;1.43;;;26.20;40.20;;;;;;6206782;23;21122;-70
2022/08/09 01:06:21;;;;;;;1.80;1.60;;;26.20;40.20;;;;;;6183848;23;20774;-70
2022/08/09 01:09:11;;;;;;;2.17;1.77;;;26.20;40.20;;;;;;6183055;23;20391;-70
2022/08/09 01:11:51;;;;;;;2.57;1.80;;;26.30;40.20;;;;;;6182505;23;20486;-70
2022/08/09 01:14:29;;;;;;;1.77;1.33;;;26.20;40.20;;;;;;6182637;23;20427;-70
2022/08/09 01:17:04;;;;;;;2.03;1.50;;;26.30;40.20;;;;;;6183070;23;20449;-70
2022/08/09 01:19:50;;;;;;;2.07;1.53;;;26.20;40.20;;;;;;6181356;23;20490;-70
2022/08/09 01:23:04;;;;;;;1.70;1.60;;;26.20;40.20;;;;;;6182304;23;20391;-70
2022/08/09 01:26:01;;;;;;;2.80;1.70;;;26.20;40.20;;;;;;6182136;23;20462;-70
2022/08/09 01:28:32;;;;;;;1.70;1.40;;;26.20;40.20;;;;;;6209337;23;20880;-70
2022/08/09 01:31:04;;;;;;;2.43;1.90;;;26.20;40.20;;;;;;6183636;23;20392;-70
2022/08/09 01:33:38;;;;;;;1.77;1.47;;;26.20;40.20;;;;;;6180825;23;20486;-70
2022/08/09 01:36:11;;;;;;;1.53;1.43;;;26.20;40.30;;;;;;6183282;23;20846;-70
2022/08/09 01:38:43;;;;;;;1.53;1.43;;;26.20;40.30;;;;;;6183556;23;20384;-70
2022/08/09 01:41:16;;;;;;;1.47;1.37;;;26.20;40.20;;;;;;6183197;23;20905;-70
2022/08/09 01:43:49;;;;;;;1.60;1.50;;;26.20;40.20;;;;;;6181540;23;20360;-70
2022/08/09 01:46:22;;;;;;;2.03;1.70;;;26.20;40.20;;;;;;6157619;23;20395;-70
2022/08/09 01:48:57;;;;;;;1.90;1.67;;;26.10;40.10;;;;;;6181250;23;20430;-70
2022/08/09 01:51:29;;;;;;;1.63;1.53;;;26.20;40.20;;;;;;6182594;23;20403;-70
2022/08/09 01:54:02;;;;;;;2.30;2.03;;;26.20;40.20;;;;;;6182811;23;20550;-70
2022/08/09 01:56:35;;;;;;;1.87;1.73;;;26.10;40.20;;;;;;6181946;23;20902;-70
2022/08/09 01:59:09;;;;;;;2.00;1.70;;;26.20;40.20;;;;;;6182462;23;20435;-70
2022/08/09 02:01:44;;;;;;;3.53;2.10;;;26.20;41.40;;;;;;6183850;23;20462;-70
2022/08/09 02:04:29;;;;;;;1.57;1.43;;;26.10;40.20;;;;;;6183509;23;20485;-70
2022/08/09 02:07:08;;;;;;;1.20;1.10;;;26.10;40.10;;;;;;6185623;23;20394;-70
2022/08/09 02:10:00;;;;;;;3.03;1.80;;;26.10;40.20;;;;;;6211376;23;20432;-70
2022/08/09 02:12:33;;;;;;;1.63;1.40;;;26.10;40.20;;;;;;6184549;23;20375;-70
2022/08/09 02:15:05;;;;;;;1.73;1.63;;;26.10;40.20;;;;;;6184604;23;20913;-70
2022/08/09 02:17:36;;;;;;;1.73;1.40;;;26.10;40.10;;;;;;6195563;23;20397;-70
2022/08/09 02:20:26;;;;;;;1.83;1.43;;;26.10;41.40;;;;;;6153711;23;20444;-70
2022/08/09 02:23:07;;;;;;;2.63;1.30;;;26.10;40.20;;;;;;6155180;23;20402;-70
2022/08/09 02:25:39;;;;;;;2.27;1.57;;;26.10;40.10;;;;;;6155442;23;20400;-70
2022/08/09 02:28:20;;;;;;;2.40;1.63;;;26.10;40.20;;;;;;6154817;23;20910;-70
2022/08/09 02:30:58;;;;;;;3.77;2.03;;;26.10;40.10;;;;;;6155507;23;20475;-70
2022/08/09 02:33:32;;;;;;;2.20;1.73;;;26.10;40.20;;;;;;6153205;23;20482;-70
2022/08/09 02:36:26;;;;;;;1.70;1.60;;;26.00;40.10;;;;;;6155971;23;20431;-70
2022/08/09 02:38:58;;;;;;;1.97;1.77;;;26.00;40.20;;;;;;6130738;23;20486;-70
2022/08/09 02:41:32;;;;;;;2.40;1.80;;;26.00;40.10;;;;;;6155863;23;20432;-70
2022/08/09 02:44:06;;;;;;;1.67;1.43;;;26.10;40.20;;;;;;6154256;23;20431;-70
2022/08/09 02:47:02;;;;;;;2.17;1.97;;;26.10;40.10;;;;;;6155322;23;20373;-70
2022/08/09 02:49:36;;;;;;;2.80;1.90;;;26.00;40.10;;;;;;6153460;23;20544;-70
2022/08/09 02:52:11;;;;;;;2.97;1.60;;;26.00;40.10;;;;;;6154963;23;20432;-70
2022/08/09 02:54:41;;;;;;;1.60;1.50;;;26.00;40.10;;;;;;6153515;23;20945;-70
2022/08/09 02:57:22;;;;;;;1.80;1.70;;;26.00;40.10;;;;;;6154882;23;20384;-70
2022/08/09 02:59:54;;;;;;;1.80;1.30;;;26.00;40.10;;;;;;6154562;23;20468;-70
2022/08/09 03:02:50;;;;;;;1.50;1.40;;;26.00;40.10;;;;;;6155242;23;20457;-70
2022/08/09 03:05:29;;;;;;;1.47;1.37;;;26.00;40.10;;;;;;6153659;23;20460;-70
2022/08/09 03:08:04;;;;;;;1.80;1.40;;;26.00;40.10;;;;;;6155701;23;20399;-70
2022/08/09 03:10:34;;;;;;;4.20;1.97;;;26.00;40.10;;;;;;6154275;23;20414;-70
2022/08/09 03:13:04;;;;;;;1.60;1.50;;;26.00;40.20;;;;;;6153885;23;20392;-70
2022/08/09 03:15:38;;;;;;;1.63;1.53;;;26.00;40.10;;;;;;6154685;23;20392;-70
2022/08/09 03:18:29;;;;;;;3.30;1.70;;;26.00;40.20;;;;;;6176305;23;20436;-70
2022/08/09 03:21:00;;;;;;;3.10;1.70;;;26.00;40.10;;;;;;6179911;23;20433;-70
2022/08/09 03:23:29;;;;;;;2.67;2.00;;;26.00;40.10;;;;;;6178117;23;20890;-70
2022/08/09 03:25:59;;;;;;;2.10;1.90;;;26.00;40.10;;;;;;6180136;23;20393;-70
2022/08/09 03:28:34;;;;;;;1.97;1.80;;;26.00;40.10;;;;;;6179451;23;20373;-70
2022/08/09 03:31:04;;;;;;;1.57;1.40;;;26.00;40.10;;;;;;6180276;23;20805;-70
2022/08/09 03:33:51;;;;;;;1.70;1.60;;;25.90;40.00;;;;;;6178033;23;20514;-70
2022/08/09 03:36:23;;;;;;;2.60;1.30;;;25.90;40.00;;;;;;6180378;23;20688;-70
2022/08/09 03:38:56;;;;;;;1.50;1.40;;;25.90;40.00;;;;;;6179598;23;20407;-70
2022/08/09 03:41:25;;;;;;;2.40;1.53;;;25.90;40.00;;;;;;6179038;23;20432;-70
2022/08/09 03:44:13;;;;;;;2.17;1.57;;;25.90;40.00;;;;;;6179116;23;20435;-70
2022/08/09 03:46:43;;;;;;;1.60;1.50;;;25.90;40.00;;;;;;6180191;23;20405;-70
2022/08/09 03:49:16;;;;;;;3.30;2.07;;;25.90;41.30;;;;;;6177996;23;20491;-70
2022/08/09 03:51:56;;;;;;;2.10;1.40;;;25.90;40.00;;;;;;6178982;23;20408;-70
2022/08/09 03:54:33;;;;;;;2.47;1.87;;;25.90;40.00;;;;;;6178727;23;20428;-70
2022/08/09 03:57:07;;;;;;;3.00;1.97;;;25.90;40.00;;;;;;6180918;23;20542;-70
2022/08/09 03:59:49;;;;;;;2.27;2.00;;;25.90;40.00;;;;;;6153927;23;20442;-70
2022/08/09 04:02:24;;;;;;;2.80;2.37;;;25.80;40.00;;;;;;6178776;23;20393;-70
2022/08/09 04:05:00;;;;;;;2.33;2.13;;;25.90;40.10;;;;;;6178348;23;20434;-70
2022/08/09 04:07:41;;;;;;;2.13;1.50;;;25.90;40.10;;;;;;6179025;23;20381;-70
2022/08/09 04:10:25;;;;;;;2.30;1.87;;;25.90;40.00;;;;;;6178320;23;20444;-70
2022/08/09 04:12:58;;;;;;;1.70;1.60;;;25.80;40.00;;;;;;6177838;23;20377;-70
2022/08/09 04:15:31;;;;;;;2.23;1.47;;;25.90;40.00;;;;;;6178396;23;20448;-70
2022/08/09 04:18:20;;;;;;;2.87;1.97;;;25.80;39.90;;;;;;6178863;23;20399;-70
2022/08/09 04:20:50;;;;;;;2.00;1.80;;;25.80;39.90;;;;;;6210810;23;20750;-70
2022/08/09 04:23:19;;;;;;;2.27;2.07;;;25.80;40.00;;;;;;6183063;23;20387;-70
2022/08/09 04:25:52;;;;;;;2.10;1.70;;;25.80;39.90;;;;;;6184464;23;20387;-70
2022/08/09 04:28:22;;;;;;;2.00;1.60;;;25.80;40.00;;;;;;6184227;23;20375;-70
2022/08/09 04:31:07;;;;;;;2.20;1.80;;;25.80;39.90;;;;;;6184315;23;20511;-70
2022/08/09 04:33:41;;;;;;;2.23;2.00;;;25.80;39.90;;;;;;6183695;23;20442;-70
2022/08/09 04:36:24;;;;;;;5.70;2.40;;;25.80;39.90;;;;;;6184474;23;20399;-70
2022/08/09 04:38:53;;;;;;;3.00;2.40;;;25.80;39.90;;;;;;6209774;23;20435;-70
2022/08/09 04:41:22;;;;;;;2.13;1.80;;;25.70;39.90;;;;;;6183181;23;20994;-70
2022/08/09 04:44:00;;;;;;;2.70;2.00;;;25.80;39.90;;;;;;6184256;23;21181;-70
2022/08/09 04:46:37;;;;;;;2.53;1.77;;;25.80;40.00;;;;;;6183185;23;20582;-70
2022/08/09 04:49:31;;;;;;;2.60;1.93;;;25.80;40.00;;;;;;6181934;23;20423;-70
2022/08/09 04:52:23;;;;;;;2.50;2.00;;;25.70;40.00;;;;;;6183421;23;20439;-70
2022/08/09 04:54:55;;;;;;;1.93;1.73;;;25.70;39.90;;;;;;6180395;23;20983;-70
2022/08/09 04:57:24;;;;;;;2.73;2.33;;;25.70;40.40;;;;;;6183711;23;20888;-70
2022/08/09 04:59:54;;;;;;;3.13;2.47;;;25.70;40.70;;;;;;6209859;23;20963;-70
2022/08/09 05:02:23;;;;;;;3.80;2.90;;;25.70;40.70;;;;;;6184705;23;20424;-70
2022/08/09 05:04:54;;;;;;;2.50;2.13;;;25.60;40.60;;;;;;6183638;23;20743;-68
2022/08/09 05:07:25;;;;;;;7.90;2.90;;;25.50;40.70;;;;;;6185084;23;20729;-68
2022/08/09 05:09:59;;;;;;;3.20;2.63;;;25.40;40.50;;;;;;6184274;23;20489;-70
2022/08/09 05:12:31;;;;;;;3.50;2.77;;;25.40;41.70;;;;;;6211795;23;20890;-70
2022/08/09 05:15:02;;;;;;;4.50;2.50;;;25.40;40.60;;;;;;6210543;23;20431;-70
2022/08/09 05:17:39;;;;;;;5.83;2.63;;;25.30;40.70;;;;;;6184584;23;20410;-68
2022/08/09 05:20:29;;;;;;;4.43;2.80;;;25.30;40.60;;;;;;6183724;23;20459;-68
2022/08/09 05:23:00;;;;;;;5.00;2.47;;;25.20;40.80;;;;;;6182142;23;20479;-68
2022/08/09 05:25:48;;;;;;;5.10;2.90;;;25.20;40.70;;;;;;6182578;23;20737;-69
2022/08/09 05:28:19;;;;;;;3.63;3.10;;;25.20;40.80;;;;;;6182445;23;20486;-69
2022/08/09 05:30:48;;;;;;;5.00;2.90;;;25.20;40.80;;;;;;6183234;23;20816;-68
2022/08/09 05:33:19;;;;;;;4.07;3.00;;;25.20;40.80;;;;;;6181142;23;20430;-70
2022/08/09 05:36:00;;;;;;;3.10;2.83;;;25.10;40.80;;;;;;6181908;23;20458;-70
2022/08/09 05:38:29;;;;;;;6.80;3.20;;;25.10;40.90;;;;;;6182902;23;20372;-70
2022/08/09 05:40:58;;;;;;;5.10;3.23;;;25.10;40.80;;;;;;6207174;23;20465;-70
2022/08/09 05:43:27;;;;;;;4.60;3.00;;;25.10;40.90;;;;;;6181715;23;20438;-70
2022/08/09 05:45:59;;;;;;;4.40;3.13;;;25.10;40.90;;;;;;6182843;23;20378;-70
2022/08/09 05:48:28;;;;;;;4.33;2.87;;;25.10;41.00;;;;;;6181131;23;20373;-70
2022/08/09 05:51:01;;;;;;;5.30;3.20;;;25.10;41.00;;;;;;6182341;23;20409;-70
2022/08/09 05:53:51;;;;;;;4.20;2.80;;;25.10;40.90;;;;;;6181548;23;20419;-70
2022/08/09 05:56:26;;;;;;;5.83;3.40;;;25.10;40.90;;;;;;6184860;23;20387;-70
2022/08/09 05:58:56;;;;;;;2.97;2.77;;;25.10;41.20;;;;;;6183218;23;20514;-70
2022/08/09 06:01:26;;;;;;;4.20;2.80;;;25.10;41.00;;;;;;6184346;23;20420;-70
2022/08/09 06:04:10;;;;;;;3.50;2.50;;;25.10;41.00;;;;;;6183385;23;20463;-70
2022/08/09 06:06:40;;;;;;;3.53;2.80;;;25.10;41.10;;;;;;6159897;23;20414;-70
2022/08/09 06:09:19;;;;;;;3.83;2.43;;;25.10;41.30;;;;;;6185547;23;20402;-70
2022/08/09 06:12:08;;;;;;;2.63;2.33;;;25.00;41.30;;;;;;6182481;23;20444;-70
2022/08/09 06:14:36;;;;;;;4.60;2.80;;;25.00;41.40;;;;;;6182435;23;20427;-70
2022/08/09 06:17:04;;;;;;;2.67;2.47;;;25.00;41.50;;;;;;6183727;23;20776;-70
2022/08/09 06:19:39;;;;;;;4.30;2.80;;;25.00;41.60;;;;;;6182191;23;20455;-68
2022/08/09 06:22:07;;;;;;;6.67;3.07;;;25.00;41.80;;;;;;6181685;23;20420;-68
2022/08/09 06:24:44;;;;;;;3.10;2.63;;;25.00;41.80;;;;;;6182018;23;20427;-68
2022/08/09 06:27:16;;;;;;;4.00;2.30;;;25.00;41.90;;;;;;6184061;23;20467;-68
2022/08/09 06:29:45;;;;;;;5.23;2.47;;;24.90;41.80;;;;;;6181616;23;20435;-68
2022/08/09 06:32:26;;;;;;;2.70;2.17;;;24.90;41.90;;;;;;6183176;23;20435;-68
2022/08/09 06:35:14;;;;;;;6.10;2.70;;;24.90;42.00;;;;;;6182455;23;20435;-68
2022/08/09 06:37:43;;;;;;;4.77;2.23;;;24.90;42.10;;;;;;6184207;23;20391;-68
2022/08/09 06:40:33;;;;;;;5.27;2.67;;;24.90;42.20;;;;;;6183197;23;20515;-68
2022/08/09 06:43:02;;;;;;;2.60;2.10;;;24.90;42.40;;;;;;6183740;23;20474;-68
2022/08/09 06:45:35;;;;;;;6.37;3.10;;;24.90;42.50;;;;;;6210539;23;20909;-68
2022/08/09 06:48:23;;;;;;;5.23;2.60;;;25.00;42.40;;;;;;6208904;23;20767;-68
2022/08/09 06:50:59;;;;;;;3.60;2.43;;;25.10;42.20;;;;;;6211507;23;20433;-68
2022/08/09 06:53:31;;;;;;;3.03;2.60;;;25.20;42.10;;;;;;6209512;23;20939;-68
2022/08/09 06:56:08;;;;;;;3.20;2.20;;;25.20;41.80;;;;;;6184753;23;20367;-68
2022/08/09 06:58:38;;;;;;;2.30;2.10;;;25.30;41.60;;;;;;6183047;23;20407;-68
2022/08/09 07:01:26;;;;;;;3.03;2.73;;;25.40;41.50;;;;;;6182891;23;20400;-68
2022/08/09 07:04:14;;;;;;;2.53;2.03;;;25.50;41.60;;;;;;6180918;23;20459;-68
2022/08/09 07:06:48;;;;;;;3.63;2.47;;;25.50;41.30;;;;;;6183158;23;20727;-68
2022/08/09 07:09:26;;;;;;;4.80;2.60;;;25.60;41.20;;;;;;6182635;23;20979;-68
2022/08/09 07:12:16;;;;;;;5.80;2.70;;;25.60;41.30;;;;;;6210765;23;20462;-68
2022/08/09 07:14:47;;;;;;;4.00;2.73;;;25.60;41.30;;;;;;6182878;23;20427;-68
2022/08/09 07:17:19;;;;;;;5.10;2.60;;;25.60;41.20;;;;;;6182228;23;20908;-67
2022/08/09 07:19:49;;;;;;;3.80;2.70;;;25.40;41.60;;;;;;6182430;23;20435;-67
2022/08/09 07:22:22;;;;;;;3.20;2.70;;;25.20;42.10;;;;;;6180767;23;20427;-67
2022/08/09 07:25:11;;;;;;;2.90;2.50;;;25.10;42.10;;;;;;6181009;23;20436;-67
2022/08/09 07:27:44;;;;;;;3.30;2.50;;;25.10;42.20;;;;;;6181046;23;20876;-67
2022/08/09 07:30:21;;;;;;;2.03;1.80;;;25.10;42.20;;;;;;6180060;23;20439;-67
2022/08/09 07:32:52;;;;;;;3.20;2.23;;;25.10;42.10;;;;;;6180278;23;20399;-67
2022/08/09 07:35:22;;;;;;;3.00;2.03;;;25.10;42.10;;;;;;6179624;23;20597;-67
2022/08/09 07:37:53;;;;;;;4.43;2.20;;;25.10;42.10;;;;;;6180190;23;20784;-71
2022/08/09 07:40:27;;;;;;;3.30;2.30;;;25.10;42.20;;;;;;6180975;23;21030;-70
2022/08/09 07:43:17;;;;;;;3.80;2.10;;;25.10;42.10;;;;;;6181256;23;20454;-70
2022/08/09 07:45:46;;;;;;;2.77;2.20;;;25.10;42.10;;;;;;6181358;23;20376;-70
2022/08/09 07:48:15;;;;;;;2.20;2.00;;;25.10;42.10;;;;;;6181434;23;20736;-70
2022/08/09 07:50:58;;;;;;;2.30;1.87;;;25.10;42.00;;;;;;6184616;23;20415;-70
2022/08/09 07:53:47;;;;;;;1.90;1.80;;;25.10;42.00;;;;;;6183064;23;20757;-70
2022/08/09 07:56:36;;;;;;;3.00;2.20;;;25.10;42.00;;;;;;6183717;23;20463;-70
2022/08/09 07:59:19;;;;;;;2.00;1.73;;;25.10;41.90;;;;;;6182134;23;20551;-70
2022/08/09 08:02:02;;;;;;;3.43;2.13;;;25.10;41.90;;;;;;6183262;23;20569;-70
2022/08/09 08:04:32;;;;;;;2.47;1.87;;;25.10;41.90;;;;;;6183841;23;20431;-70
2022/08/09 08:07:03;;;;;;;3.80;2.30;;;25.10;41.90;;;;;;6183307;23;20404;-70
2022/08/09 08:09:51;;;;;;;2.97;2.10;;;25.10;41.90;;;;;;6183060;23;20423;-70
2022/08/09 08:12:40;;;;;;;2.80;1.83;;;25.10;41.90;;;;;;6183291;23;20692;-70
2022/08/09 08:15:16;;;;;;;2.67;2.47;;;25.10;41.90;;;;;;6181634;23;20530;-70
2022/08/09 08:17:46;;;;;;;2.20;1.90;;;25.10;41.80;;;;;;6182572;23;20396;-70
2022/08/09 08:20:24;;;;;;;2.30;2.10;;;25.10;41.80;;;;;;6180579;23;20439;-70
2022/08/09 08:22:59;;;;;;;4.10;1.80;;;25.10;41.80;;;;;;6182725;23;20502;-70
2022/08/09 08:25:34;;;;;;;2.00;1.80;;;25.10;41.80;;;;;;6182612;23;20504;-70
2022/08/09 08:28:13;;;;;;;1.70;1.60;;;25.10;41.80;;;;;;6184500;23;20384;-70
2022/08/09 08:30:44;;;;;;;1.70;1.60;;;25.20;41.80;;;;;;6183588;23;20424;-70
2022/08/09 08:33:15;;;;;;;2.13;1.80;;;25.10;41.80;;;;;;6208155;23;20424;-70
2022/08/09 08:35:52;;;;;;;2.17;1.90;;;25.20;41.80;;;;;;6159895;23;20477;-70
2022/08/09 08:38:28;;;;;;;2.10;1.70;;;25.10;41.80;;;;;;6183433;23;20379;-70
2022/08/09 08:40:58;;;;;;;2.00;1.77;;;25.20;42.00;;;;;;6182938;23;20419;-70
2022/08/09 08:43:34;;;;;;;2.30;2.03;;;25.10;43.00;;;;;;6182193;23;20465;-70
2022/08/09 08:46:10;;;;;;;4.83;2.00;;;25.10;41.80;;;;;;6183828;23;20376;-70
2022/08/09 08:48:59;;;;;;;2.47;2.27;;;25.20;41.90;;;;;;6183713;23;20384;-70
2022/08/09 08:51:27;;;;;;;2.00;1.80;;;25.10;41.80;;;;;;6183241;23;20456;-70
2022/08/09 08:54:16;;;;;;;2.30;2.03;;;25.20;41.90;;;;;;6181344;23;20427;-70
2022/08/09 08:56:52;;;;;;;2.97;1.93;;;25.10;41.80;;;;;;6183280;23;20368;-71
2022/08/09 08:59:20;;;;;;;2.03;1.77;;;25.10;41.80;;;;;;6207630;23;20400;-71
2022/08/09 09:01:57;;;;;;;2.10;2.00;;;25.20;41.90;;;;;;6181759;23;20453;-70
2022/08/09 09:04:29;;;;;;;4.50;2.23;;;25.20;41.90;;;;;;6179736;23;20436;-70
2022/08/09 09:07:09;;;;;;;1.73;1.63;;;25.10;41.80;;;;;;6183795;23;20372;-70
2022/08/09 09:09:41;;;;;;;2.13;1.67;;;25.20;41.90;;;;;;6180686;23;20458;-70
2022/08/09 09:12:31;;;;;;;2.50;1.90;;;25.20;41.90;;;;;;6181164;23;20908;-70
2022/08/09 09:15:04;;;;;;;2.10;1.83;;;25.10;41.80;;;;;;6181396;23;20478;-70
2022/08/09 09:17:36;;;;;;;2.63;1.60;;;25.10;41.80;;;;;;6183319;23;20395;-70
2022/08/09 09:20:20;;;;;;;4.40;1.77;;;25.10;41.80;;;;;;6207429;23;20522;-70
2022/08/09 09:22:54;;;;;;;2.43;2.23;;;25.10;41.80;;;;;;6181901;23;20398;-70
2022/08/09 09:25:37;;;;;;;3.53;2.40;;;25.10;41.80;;;;;;6182312;23;20428;-70
2022/08/09 09:28:32;;;;;;;2.17;1.97;;;25.10;41.80;;;;;;6180998;23;20380;-70
2022/08/09 09:31:23;;;;;;;1.70;1.60;;;25.10;41.80;;;;;;6182420;23;20483;-70
2022/08/09 09:34:14;;;;;;;1.90;1.80;;;25.10;41.80;;;;;;6180997;23;20438;-70
2022/08/09 09:36:46;;;;;;;2.30;2.03;;;25.20;41.90;;;;;;6180975;23;20758;-70
2022/08/09 09:39:22;;;;;;;4.60;2.57;;;25.10;41.80;;;;;;6183364;23;20956;-70
2022/08/09 09:42:23;;;;;;;4.50;2.93;;;25.10;42.10;;;;;;6181039;23;20440;-70
2022/08/09 09:44:56;;;;;;;2.10;1.90;;;25.10;41.90;;;;;;6181026;23;20439;-70
2022/08/09 09:47:26;;;;;;;2.90;2.40;;;25.10;42.00;;;;;;6185119;23;20380;-70
2022/08/09 09:49:59;;;;;;;4.33;3.33;;;25.10;42.00;;;;;;6183342;23;20736;-70
2022/08/09 09:52:51;;;;;;;7.73;2.90;;;25.10;42.20;;;;;;6184297;23;20376;-70
2022/08/09 09:55:23;;;;;;;2.83;2.47;;;25.20;41.80;;;;;;6181211;23;20720;-70
2022/08/09 09:58:02;;;;;;;5.33;3.33;;;25.20;41.80;;;;;;6179742;23;20391;-66
2022/08/09 10:00:48;;;;;;;2.20;2.03;;;25.20;42.10;;;;;;6181164;23;20415;-66
2022/08/09 10:03:39;;;;;;;3.13;2.60;;;25.20;42.10;;;;;;6180618;23;20415;-66
2022/08/09 10:06:11;;;;;;;4.00;2.30;;;25.20;42.00;;;;;;6182203;23;20865;-66
2022/08/09 10:08:40;;;;;;;2.80;2.30;;;25.20;42.10;;;;;;6180698;23;20941;-66
2022/08/09 10:11:24;;;;;;;2.47;2.23;;;25.20;42.10;;;;;;6182243;23;20462;-67
2022/08/09 10:14:30;;;;;;;2.37;2.13;;;25.20;42.00;;;;;;6179686;23;20823;-66
2022/08/09 10:17:10;;;;;;;2.40;2.10;;;25.20;42.10;;;;;;6155335;23;20411;-66
2022/08/09 10:19:59;;;;;;;2.83;2.30;;;25.20;42.10;;;;;;6178415;23;20979;-67
2022/08/09 10:22:39;;;;;;;2.50;2.30;;;25.20;42.10;;;;;;6182529;23;20916;-66
2022/08/09 10:25:09;;;;;;;6.70;2.67;;;25.20;42.10;;;;;;6184718;23;20463;-67
2022/08/09 10:27:43;;;;;;;2.47;1.97;;;25.20;42.10;;;;;;6185943;23;20384;-66
2022/08/09 10:30:26;;;;;;;2.50;2.30;;;25.20;42.10;;;;;;6183231;23;20436;-66
2022/08/09 10:33:15;;;;;;;2.67;2.27;;;25.20;42.10;;;;;;6184319;23;20396;-66
2022/08/09 10:36:05;;;;;;;3.90;2.07;;;25.10;42.00;;;;;;6212016;23;20404;-67
2022/08/09 10:38:43;;;;;;;2.40;2.20;;;25.20;43.30;;;;;;6183945;23;21225;-70
2022/08/09 10:41:27;;;;;;;2.40;2.17;;;25.20;42.10;;;;;;6185300;23;20403;-67
2022/08/09 10:43:56;;;;;;;2.90;2.43;;;25.10;42.10;;;;;;6184589;23;20444;-70
2022/08/09 10:47:05;;;;;;;2.97;2.23;;;25.20;42.10;;;;;;6184142;23;20834;-70
2022/08/09 10:50:04;;;;;;;3.87;2.17;;;25.20;42.10;;;;;;6206658;23;20431;-70
2022/08/09 10:53:08;;;;;;;4.90;1.97;;;25.10;42.00;;;;;;6209007;23;20388;-70
2022/08/09 10:55:39;;;;;;;2.90;2.07;;;25.20;42.10;;;;;;6140292;23;20462;-70
2022/08/09 10:58:31;;;;;;;2.57;2.37;;;25.20;42.00;;;;;;6171187;23;20798;-70
2022/08/09 11:01:03;;;;;;;2.87;2.57;;;25.20;42.10;;;;;;6182348;23;20477;-70
2022/08/09 11:04:10;;;;;;;3.57;1.70;;;25.20;42.10;;;;;;6179646;23;20443;-70
2022/08/09 11:07:27;;;;;;;2.33;2.00;;;25.20;42.10;;;;;;6182001;23;20466;-70
2022/08/09 11:10:57;;;;;;;2.23;1.87;;;25.20;42.00;;;;;;6180932;23;20945;-70
2022/08/09 11:13:36;;;;;;;1.93;1.83;;;25.20;42.10;;;;;;6207942;23;20395;-70
2022/08/09 11:16:35;;;;;;;2.43;2.23;;;25.20;42.00;;;;;;6181589;23;20818;-70
2022/08/09 11:19:08;;;;;;;3.17;2.40;;;25.20;42.00;;;;;;6180354;23;20462;-70
2022/08/09 11:21:56;;;;;;;5.77;2.30;;;25.20;42.10;;;;;;6181548;23;20971;-70
2022/08/09 11:25:06;;;;;;;2.90;2.60;;;25.20;42.10;;;;;;6183937;23;21011;-70
2022/08/09 11:27:40;;;;;;;2.40;2.20;;;25.20;42.00;;;;;;6210388;23;20396;-70
2022/08/09 11:30:36;;;;;;;2.20;2.00;;;25.20;42.10;;;;;;6182788;23;20446;-70
2022/08/09 11:33:14;;;;;;;2.47;2.27;;;25.20;42.00;;;;;;6181866;23;20685;-70
2022/08/09 11:35:45;;;;;;;2.50;2.30;;;25.20;42.00;;;;;;6181302;23;20411;-70
2022/08/09 11:38:20;;;;;;;3.10;2.30;;;25.20;42.00;;;;;;6183332;23;20459;-70
2022/08/09 11:41:27;;;;;;;2.33;1.67;;;25.30;42.10;;;;;;6182276;23;20908;-70
2022/08/09 11:44:09;;;;;;;2.33;2.23;;;25.30;42.10;;;;;;6182681;23;20485;-70
2022/08/09 11:47:01;;;;;;;3.30;2.67;;;25.30;42.10;;;;;;6209936;23;20845;-70
2022/08/09 11:50:02;;;;;;;2.23;2.03;;;25.30;42.10;;;;;;6162391;23;20428;-70
2022/08/09 11:53:19;;;;;;;2.13;1.93;;;25.30;42.00;;;;;;6211606;23;20426;-70
2022/08/09 11:56:26;;;;;;;2.63;2.30;;;25.30;42.10;;;;;;6185398;23;20400;-70
2022/08/09 11:59:26;;;;;;;2.40;2.20;;;25.30;42.10;;;;;;6210579;23;20396;-70
2022/08/09 12:02:01;;;;;;;3.73;2.00;;;25.30;42.10;;;;;;6185173;23;20408;-70
2022/08/09 12:04:52;;;;;;;2.53;2.33;;;25.30;42.00;;;;;;6184767;23;20471;-70
2022/08/09 12:07:30;;;;;;;1.90;1.80;;;25.30;42.10;;;;;;6186153;23;20367;-70
2022/08/09 12:10:10;;;;;;;2.03;1.83;;;25.30;42.00;;;;;;6184657;23;20438;-70
2022/08/09 12:12:59;;;;;;;4.13;2.13;;;25.30;42.00;;;;;;6184028;23;20376;-70
2022/08/09 12:15:50;;;;;;;2.43;1.97;;;25.30;42.10;;;;;;6185767;23;20905;-70
2022/08/09 12:18:20;;;;;;;1.77;1.53;;;25.40;42.10;;;;;;6211740;23;20446;-70
2022/08/09 12:21:01;;;;;;;2.77;1.87;;;25.30;42.10;;;;;;6186569;23;20412;-70
2022/08/09 12:23:50;;;;;;;2.70;1.83;;;25.40;42.10;;;;;;6186522;23;20375;-66
2022/08/09 12:26:42;;;;;;;1.70;1.60;;;25.40;42.00;;;;;;6185593;23;20400;-66
2022/08/09 12:29:31;;;;;;;2.10;1.90;;;25.40;42.00;;;;;;6184546;23;20426;-66
2022/08/09 12:32:26;;;;;;;2.50;2.13;;;25.40;41.90;;;;;;6185337;23;20412;-66
2022/08/09 12:34:59;;;;;;;2.40;2.20;;;25.30;41.80;;;;;;6161397;23;20447;-72
2022/08/09 12:37:32;;;;;;;2.23;2.00;;;25.40;42.00;;;;;;6149253;23;20373;-72
2022/08/09 12:40:17;;;;;;;2.47;2.27;;;25.40;42.00;;;;;;6150378;23;20433;-72
2022/08/09 12:42:46;;;;;;;2.67;1.77;;;25.40;42.10;;;;;;6150421;23;20418;-72
2022/08/09 12:45:19;;;;;;;1.90;1.77;;;25.40;42.00;;;;;;6149699;23;20449;-71
2022/08/09 12:48:08;;;;;;;2.10;2.00;;;25.40;42.00;;;;;;6150903;23;20468;-72
2022/08/09 12:50:56;;;;;;;2.10;1.90;;;25.40;42.00;;;;;;6177833;23;20734;-72
2022/08/09 12:53:26;;;;;;;2.27;1.90;;;25.40;43.20;;;;;;6149528;23;20369;-72
2022/08/09 12:56:10;;;;;;;1.93;1.83;;;25.40;41.90;;;;;;6150375;23;21347;-72
2022/08/09 12:59:08;;;;;;;3.03;2.00;;;25.40;42.00;;;;;;6151126;23;20396;-72
2022/08/09 13:01:39;;;;;;;3.33;2.73;;;25.40;41.90;;;;;;6176525;23;20943;-72
2022/08/09 13:04:23;;;;;;;3.70;2.20;;;25.40;41.90;;;;;;6149144;23;20436;-65
2022/08/09 13:07:13;;;;;;;2.90;2.40;;;25.50;42.00;;;;;;6178807;23;20428;-65
2022/08/09 13:09:42;;;;;;;2.60;2.20;;;25.50;42.00;;;;;;6150826;23;20428;-67
2022/08/09 13:12:28;;;;;;;1.93;1.83;;;25.50;41.80;;;;;;6149985;23;20387;-72
2022/08/09 13:15:07;;;;;;;1.77;1.67;;;25.50;41.60;;;;;;6151528;23;20428;-72
2022/08/09 13:17:35;;;;;;;2.80;2.60;;;25.50;41.60;;;;;;6151895;23;20419;-68
2022/08/09 13:20:36;;;;;;;2.27;2.07;;;25.50;41.60;;;;;;6176756;23;20447;-67
2022/08/09 13:23:41;;;;;;;4.00;2.50;;;25.50;42.00;;;;;;6151392;23;20392;-72
2022/08/09 13:26:35;;;;;;;3.17;2.53;;;25.60;40.70;;;;;;6127042;23;20419;-70
2022/08/09 13:29:06;;;;;;;6.50;3.27;;;25.60;40.20;;;;;;6149246;23;20756;-72
2022/08/09 13:31:55;;;;;;;9.10;3.03;;;25.70;38.10;;;;;;6151271;23;20941;-72
2022/08/09 13:34:44;;;;;;;5.50;2.53;;;25.80;37.60;;;;;;6150179;23;20886;-72
2022/08/09 13:37:15;;;;;;;4.70;3.27;;;25.80;36.70;;;;;;6177732;23;20976;-72
2022/08/09 13:40:03;;;;;;;3.20;2.53;;;25.90;37.10;;;;;;6150797;23;20436;-72
2022/08/09 13:42:52;;;;;;;6.17;2.90;;;25.90;37.20;;;;;;6176370;23;20384;-71
2022/08/09 13:45:21;;;;;;;4.13;3.00;;;25.90;36.20;;;;;;6151053;23;20444;-71
2022/08/09 13:48:10;;;;;;;8.73;3.60;;;25.90;36.40;;;;;;6151342;23;20371;-72
2022/08/09 13:50:42;;;;;;;5.27;2.90;;;26.00;36.60;;;;;;6150638;23;20464;-71